Silver Cloud — C6MQ5 — position and weather

sailwx.info

Track history (hours):
 
Tides and Currents Weather Stations Pressure Air Temp Water Temp Dewpoint Dewpoint Depression Visibility Wind Speed Wind Dir Waves Ship Positions

Silver Cloud

Operator: V Ships Leisure SAM

Last reported at 2015-Aug-01 07:33 UTC. Time now 2015-Aug-01 07:45 UTC.
Position N 52°27' E 004°40'.

Length 155 m; draft 5.6 m.

Type: Passenger vessel. MMSI: 309027000.

Date/timePositionNaut miles runAvg speedWind from/ knotsBaromVisibWave heightAir tempDewpointWater temp
2015-Aug-01 07:33N 52°27' E 004°40'3 2.7
2015-Aug-01 06:34N 52°28' E 004°36'0 0.1
2015-Aug-01 05:34N 52°28' E 004°36'0 0.0
2015-Aug-01 04:34N 52°28' E 004°36'5 4.6
2015-Aug-01 03:33N 52°28' E 004°28'9 8.7
2015-Aug-01 02:34N 52°29' E 004°14'1514.6
2015-Aug-01 01:33N 52°42' E 004°02'1615.2
2015-Aug-01 00:31N 52°57' E 004°00'3716.0
2015-Jul-31 22:13N 53°27' E 004°37'1116.7
2015-Jul-31 21:33N 53°31' E 004°54'1716.7
2015-Jul-31 20:34N 53°37' E 005°20'1616.3
2015-Jul-31 19:33N 53°42' E 005°46'5116.8
2015-Jul-31 16:32N 53°56' E 007°09'1818.1
2015-Jul-31 15:34N 54°00' E 007°38'1818.3
2015-Jul-31 14:33N 54°01' E 008°09'1717.3
2015-Jul-31 13:34N 53°57' E 008°38'1413.8
2015-Jul-31 12:33N 53°51' E 008°59'6 6.1
2015-Jul-31 11:31N 53°54' E 009°09'5 5.5
2015-Jul-31 10:31N 53°58' E 009°15'7 7.5
2015-Jul-31 09:33N 54°04' E 009°19'8 7.6
2015-Jul-31 08:33N 54°10' E 009°27'8 7.5
2015-Jul-31 07:33N 54°15' E 009°37'5 4.9
2015-Jul-31 06:33N 54°19' E 009°43'7 6.8
2015-Jul-31 05:33N 54°21' E 009°54'6 6.1
2015-Jul-31 04:33N 54°22' E 010°04'3 2.5
2015-Jul-31 03:33N 54°22' E 010°08'3 3.4
2015-Jul-31 02:33N 54°24' E 010°12'1111.1
2015-Jul-31 01:33N 54°32' E 010°26'1514.7
2015-Jul-31 00:31N 54°35' E 010°52'1111.4
2015-Jul-30 23:33N 54°36' E 011°11'1313.4
2015-Jul-30 22:33N 54°30' E 011°32'1313.2
2015-Jul-30 21:33N 54°24' E 011°52'1313.0
2015-Jul-30 20:33N 54°13' E 012°05'3 1.2
2015-Jul-30 18:11N 54°11' E 012°06'0 0.0
2015-Jul-30 17:29N 54°11' E 012°06'0 0.0
2015-Jul-30 16:32N 54°11' E 012°06'0 0.0
2015-Jul-30 15:20N 54°11' E 012°06'0 0.0
2015-Jul-30 14:26N 54°11' E 012°06'0 0.0
2015-Jul-30 12:17N 54°11' E 012°06'0 0.0
2015-Jul-30 11:32N 54°11' E 012°06'0 0.0
2015-Jul-30 09:26N 54°11' E 012°06'0 0.0
2015-Jul-30 08:29N 54°11' E 012°06'0 0.0
2015-Jul-30 07:29N 54°11' E 012°06'0 0.0
2015-Jul-30 06:20N 54°11' E 012°06'0 0.2
2015-Jul-30 05:33N 54°10' E 012°06'10 9.8
2015-Jul-30 04:33N 54°20' E 011°60'9 9.3
2015-Jul-30 03:33N 54°27' E 012°09'6113.7
2015-Jul-29 23:07N 54°59' E 013°39'814.5
2015-Jul-29 22:33N 55°02' E 013°52'1413.8
2015-Jul-29 21:33N 55°10' E 014°11'1414.4
2015-Jul-29 20:33N 55°21' E 014°28'1514.6
2015-Jul-29 19:33N 55°30' E 014°48'1514.7
2015-Jul-29 18:33N 55°38' E 015°10'30415.1
2015-Jul-28 22:29N 59°14' E 021°47'1515.9
2015-Jul-28 21:34N 59°23' E 022°09'1616.0
2015-Jul-28 20:34N 59°32' E 022°34'1616.0
2015-Jul-28 19:34N 59°36' E 023°05'1616.1
2015-Jul-28 18:34N 59°40' E 023°36'1616.2
2015-Jul-28 17:33N 59°44' E 024°07'1515.6
2015-Jul-28 16:33N 59°51' E 024°36'1615.6
2015-Jul-28 15:31N 60°03' E 024°57'28 2.0
2015-Jul-28 01:07N 59°55' E 025°52'916.1
2015-Jul-28 00:33N 59°58' E 026°10'1616.2
2015-Jul-27 23:33N 60°01' E 026°41'1615.7
2015-Jul-27 22:33N 60°02' E 027°13'7314.6
2015-Jul-27 17:33N 59°60' E 029°39'1211.7
2015-Jul-27 16:33N 59°55' E 030°00'7 7.1
2015-Jul-27 15:34N 59°55' E 030°14'2 1.9
2015-Jul-27 14:33N 59°56' E 030°17'0 0.0
2015-Jul-27 13:33N 59°56' E 030°17'0 0.0
2015-Jul-27 12:33N 59°56' E 030°17'0 0.0
2015-Jul-27 11:33N 59°56' E 030°17'0 0.0
2015-Jul-27 10:33N 59°56' E 030°17'0 0.0
2015-Jul-27 09:33N 59°56' E 030°17'0 0.0
2015-Jul-27 08:33N 59°56' E 030°17'0 0.0
2015-Jul-27 07:33N 59°56' E 030°17'0 0.0
2015-Jul-27 06:33N 59°56' E 030°17'0 0.0
2015-Jul-27 05:33N 59°56' E 030°17'0 0.0
2015-Jul-27 04:33N 59°56' E 030°17'0 0.0
2015-Jul-27 03:30N 59°56' E 030°17'0 0.0
2015-Jul-27 02:33N 59°56' E 030°17'0 0.0
2015-Jul-27 01:33N 59°56' E 030°17'0 0.0
2015-Jul-27 00:33N 59°56' E 030°17'0 0.0
2015-Jul-26 23:33N 59°56' E 030°17'0 0.0
2015-Jul-26 22:33N 59°56' E 030°17'0 0.0
2015-Jul-26 21:33N 59°56' E 030°17'0 0.0
2015-Jul-26 20:33N 59°56' E 030°17'0 0.0
2015-Jul-26 19:32N 59°56' E 030°17'0 0.0
2015-Jul-26 18:32N 59°56' E 030°17'0 0.0
2015-Jul-26 17:32N 59°56' E 030°17'0 0.0
2015-Jul-26 16:32N 59°56' E 030°17'0 0.0
2015-Jul-26 15:32N 59°56' E 030°17'0 0.0
2015-Jul-26 14:32N 59°56' E 030°17'0 0.0
2015-Jul-26 13:32N 59°56' E 030°17'0 0.0
2015-Jul-26 12:32N 59°56' E 030°17'0 0.0
2015-Jul-26 11:32N 59°56' E 030°17'0 0.0
2015-Jul-26 10:32N 59°56' E 030°17'0 0.0
2015-Jul-26 09:32N 59°56' E 030°17'0 0.0
2015-Jul-26 08:32N 59°56' E 030°17'0 0.0
2015-Jul-26 07:32N 59°56' E 030°17'0 0.0
2015-Jul-26 06:32N 59°56' E 030°17'0 0.0
2015-Jul-26 05:32N 59°56' E 030°17'0 0.0
2015-Jul-26 04:33N 59°56' E 030°17'3 2.9
2015-Jul-26 03:33N 59°54' E 030°13'8 7.8
2015-Jul-26 02:33N 59°56' E 029°58'1111.1
2015-Jul-26 01:33N 60°00' E 029°38'1211.6
2015-Jul-26 00:33N 60°02' E 029°14'4714.0
2015-Jul-25 21:10N 60°09' E 027°41'914.9
2015-Jul-25 20:33N 60°04' E 027°25'1514.5
2015-Jul-25 19:31N 59°58' E 026°59'1414.5
2015-Jul-25 18:31N 59°58' E 026°30'1615.3
2015-Jul-25 17:30N 59°54' E 026°00'1515.4
2015-Jul-25 16:32N 59°49' E 025°32'1515.2
2015-Jul-25 15:33N 59°45' E 025°03'1414.0
2015-Jul-25 14:33N 59°37' E 024°41'10 9.7
2015-Jul-25 13:31N 59°27' E 024°46'0 0.0
2015-Jul-25 12:31N 59°27' E 024°46'0 0.0
2015-Jul-25 11:31N 59°27' E 024°46'0 0.0
2015-Jul-25 10:22N 59°27' E 024°46'0 0.0
2015-Jul-25 09:31N 59°27' E 024°46'0 0.0
2015-Jul-25 08:31N 59°27' E 024°46'0 0.0
2015-Jul-25 07:33N 59°27' E 024°46'5 4.9
2015-Jul-25 06:33N 59°30' E 024°39'19714.0
2015-Jul-24 16:29N 59°20' E 018°12'4 1.5
2015-Jul-24 14:06N 59°19' E 018°05'0 0.0
2015-Jul-24 12:33N 59°19' E 018°05'0 0.0
2015-Jul-24 11:27N 59°19' E 018°05'0 0.0
2015-Jul-24 07:24N 59°19' E 018°05'0 0.0
2015-Jul-24 05:33N 59°19' E 018°05'9 9.3
2015-Jul-24 04:33N 59°22' E 018°22'232 8.3
2015-Jul-23 00:29N 55°45' E 015°49'1516.3
2015-Jul-22 23:33N 55°38' E 015°25'1616.4
2015-Jul-22 22:33N 55°30' E 014°60'1616.2
2015-Jul-22 21:33N 55°21' E 014°36'1615.6
2015-Jul-22 20:34N 55°11' E 014°16'1716.7
2015-Jul-22 19:33N 55°11' E 013°47'1716.7
2015-Jul-22 18:34N 55°13' E 013°18'1716.5
2015-Jul-22 17:34N 55°16' E 012°49'1313.1
2015-Jul-22 16:34N 55°28' E 012°41'1212.2
2015-Jul-22 15:33N 55°40' E 012°41'3 3.3
2015-Jul-22 14:31N 55°42' E 012°36'0 0.0
2015-Jul-22 13:31N 55°42' E 012°36'0 0.0
2015-Jul-22 12:34N 55°42' E 012°36'0 0.0
2015-Jul-22 11:33N 55°42' E 012°36'0 0.0
2015-Jul-22 10:33N 55°42' E 012°36'0 0.0
2015-Jul-22 09:33N 55°42' E 012°36'0 0.0
2015-Jul-22 08:33N 55°42' E 012°36'  
Track history (hours):
 
Tides and Currents Weather Stations Pressure Air Temp Water Temp Dewpoint Dewpoint Depression Visibility Wind Speed Wind Dir Waves Ship Positions

Silver Cloud

Operator: V Ships Leisure SAM

Last reported at 2015-Aug-01 07:33 UTC. Time now 2015-Aug-01 07:45 UTC.
Position N 52°27' E 004°40'.

Length 155 m; draft 5.6 m.

Type: Passenger vessel. MMSI: 309027000.

Date/timePositionNaut miles runAvg speedWind from/ knotsBaromVisibWave heightAir tempDewpointWater temp
2015-Aug-01 07:33N 52°27' E 004°40'3 2.7
2015-Aug-01 06:34N 52°28' E 004°36'0 0.1
2015-Aug-01 05:34N 52°28' E 004°36'0 0.0
2015-Aug-01 04:34N 52°28' E 004°36'5 4.6
2015-Aug-01 03:33N 52°28' E 004°28'9 8.7
2015-Aug-01 02:34N 52°29' E 004°14'1514.6
2015-Aug-01 01:33N 52°42' E 004°02'1615.2
2015-Aug-01 00:31N 52°57' E 004°00'3716.0
2015-Jul-31 22:13N 53°27' E 004°37'1116.7
2015-Jul-31 21:33N 53°31' E 004°54'1716.7
2015-Jul-31 20:34N 53°37' E 005°20'1616.3
2015-Jul-31 19:33N 53°42' E 005°46'5116.8
2015-Jul-31 16:32N 53°56' E 007°09'1818.1
2015-Jul-31 15:34N 54°00' E 007°38'1818.3
2015-Jul-31 14:33N 54°01' E 008°09'1717.3
2015-Jul-31 13:34N 53°57' E 008°38'1413.8
2015-Jul-31 12:33N 53°51' E 008°59'6 6.1
2015-Jul-31 11:31N 53°54' E 009°09'5 5.5
2015-Jul-31 10:31N 53°58' E 009°15'7 7.5
2015-Jul-31 09:33N 54°04' E 009°19'8 7.6
2015-Jul-31 08:33N 54°10' E 009°27'8 7.5
2015-Jul-31 07:33N 54°15' E 009°37'5 4.9
2015-Jul-31 06:33N 54°19' E 009°43'7 6.8
2015-Jul-31 05:33N 54°21' E 009°54'6 6.1
2015-Jul-31 04:33N 54°22' E 010°04'3 2.5
2015-Jul-31 03:33N 54°22' E 010°08'3 3.4
2015-Jul-31 02:33N 54°24' E 010°12'1111.1
2015-Jul-31 01:33N 54°32' E 010°26'1514.7
2015-Jul-31 00:31N 54°35' E 010°52'1111.4
2015-Jul-30 23:33N 54°36' E 011°11'1313.4
2015-Jul-30 22:33N 54°30' E 011°32'1313.2
2015-Jul-30 21:33N 54°24' E 011°52'1313.0
2015-Jul-30 20:33N 54°13' E 012°05'3 1.2
2015-Jul-30 18:11N 54°11' E 012°06'0 0.0
2015-Jul-30 17:29N 54°11' E 012°06'0 0.0
2015-Jul-30 16:32N 54°11' E 012°06'0 0.0
2015-Jul-30 15:20N 54°11' E 012°06'0 0.0
2015-Jul-30 14:26N 54°11' E 012°06'0 0.0
2015-Jul-30 12:17N 54°11' E 012°06'0 0.0
2015-Jul-30 11:32N 54°11' E 012°06'0 0.0
2015-Jul-30 09:26N 54°11' E 012°06'0 0.0
2015-Jul-30 08:29N 54°11' E 012°06'0 0.0
2015-Jul-30 07:29N 54°11' E 012°06'0 0.0
2015-Jul-30 06:20N 54°11' E 012°06'0 0.2
2015-Jul-30 05:33N 54°10' E 012°06'10 9.8
2015-Jul-30 04:33N 54°20' E 011°60'9 9.3
2015-Jul-30 03:33N 54°27' E 012°09'6113.7
2015-Jul-29 23:07N 54°59' E 013°39'814.5
2015-Jul-29 22:33N 55°02' E 013°52'1413.8
2015-Jul-29 21:33N 55°10' E 014°11'1414.4
2015-Jul-29 20:33N 55°21' E 014°28'1514.6
2015-Jul-29 19:33N 55°30' E 014°48'1514.7
2015-Jul-29 18:33N 55°38' E 015°10'30415.1
2015-Jul-28 22:29N 59°14' E 021°47'1515.9
2015-Jul-28 21:34N 59°23' E 022°09'1616.0
2015-Jul-28 20:34N 59°32' E 022°34'1616.0
2015-Jul-28 19:34N 59°36' E 023°05'1616.1
2015-Jul-28 18:34N 59°40' E 023°36'1616.2
2015-Jul-28 17:33N 59°44' E 024°07'1515.6
2015-Jul-28 16:33N 59°51' E 024°36'1615.6
2015-Jul-28 15:31N 60°03' E 024°57'28 2.0
2015-Jul-28 01:07N 59°55' E 025°52'916.1
2015-Jul-28 00:33N 59°58' E 026°10'1616.2
2015-Jul-27 23:33N 60°01' E 026°41'1615.7
2015-Jul-27 22:33N 60°02' E 027°13'7314.6
2015-Jul-27 17:33N 59°60' E 029°39'1211.7
2015-Jul-27 16:33N 59°55' E 030°00'7 7.1
2015-Jul-27 15:34N 59°55' E 030°14'2 1.9
2015-Jul-27 14:33N 59°56' E 030°17'0 0.0
2015-Jul-27 13:33N 59°56' E 030°17'0 0.0
2015-Jul-27 12:33N 59°56' E 030°17'0 0.0
2015-Jul-27 11:33N 59°56' E 030°17'0 0.0
2015-Jul-27 10:33N 59°56' E 030°17'0 0.0
2015-Jul-27 09:33N 59°56' E 030°17'0 0.0
2015-Jul-27 08:33N 59°56' E 030°17'0 0.0
2015-Jul-27 07:33N 59°56' E 030°17'0 0.0
2015-Jul-27 06:33N 59°56' E 030°17'0 0.0
2015-Jul-27 05:33N 59°56' E 030°17'0 0.0
2015-Jul-27 04:33N 59°56' E 030°17'0 0.0
2015-Jul-27 03:30N 59°56' E 030°17'0 0.0
2015-Jul-27 02:33N 59°56' E 030°17'0 0.0
2015-Jul-27 01:33N 59°56' E 030°17'0 0.0
2015-Jul-27 00:33N 59°56' E 030°17'0 0.0
2015-Jul-26 23:33N 59°56' E 030°17'0 0.0
2015-Jul-26 22:33N 59°56' E 030°17'0 0.0
2015-Jul-26 21:33N 59°56' E 030°17'0 0.0
2015-Jul-26 20:33N 59°56' E 030°17'0 0.0
2015-Jul-26 19:32N 59°56' E 030°17'0 0.0
2015-Jul-26 18:32N 59°56' E 030°17'0 0.0
2015-Jul-26 17:32N 59°56' E 030°17'0 0.0
2015-Jul-26 16:32N 59°56' E 030°17'0 0.0
2015-Jul-26 15:32N 59°56' E 030°17'0 0.0
2015-Jul-26 14:32N 59°56' E 030°17'0 0.0
2015-Jul-26 13:32N 59°56' E 030°17'0 0.0
2015-Jul-26 12:32N 59°56' E 030°17'0 0.0
2015-Jul-26 11:32N 59°56' E 030°17'0 0.0
2015-Jul-26 10:32N 59°56' E 030°17'0 0.0
2015-Jul-26 09:32N 59°56' E 030°17'0 0.0
2015-Jul-26 08:32N 59°56' E 030°17'0 0.0
2015-Jul-26 07:32N 59°56' E 030°17'0 0.0
2015-Jul-26 06:32N 59°56' E 030°17'0 0.0
2015-Jul-26 05:32N 59°56' E 030°17'0 0.0
2015-Jul-26 04:33N 59°56' E 030°17'3 2.9
2015-Jul-26 03:33N 59°54' E 030°13'8 7.8
2015-Jul-26 02:33N 59°56' E 029°58'1111.1
2015-Jul-26 01:33N 60°00' E 029°38'1211.6
2015-Jul-26 00:33N 60°02' E 029°14'4714.0
2015-Jul-25 21:10N 60°09' E 027°41'914.9
2015-Jul-25 20:33N 60°04' E 027°25'1514.5
2015-Jul-25 19:31N 59°58' E 026°59'1414.5
2015-Jul-25 18:31N 59°58' E 026°30'1615.3
2015-Jul-25 17:30N 59°54' E 026°00'1515.4
2015-Jul-25 16:32N 59°49' E 025°32'1515.2
2015-Jul-25 15:33N 59°45' E 025°03'1414.0
2015-Jul-25 14:33N 59°37' E 024°41'10 9.7
2015-Jul-25 13:31N 59°27' E 024°46'0 0.0
2015-Jul-25 12:31N 59°27' E 024°46'0 0.0
2015-Jul-25 11:31N 59°27' E 024°46'0 0.0
2015-Jul-25 10:22N 59°27' E 024°46'0 0.0
2015-Jul-25 09:31N 59°27' E 024°46'0 0.0
2015-Jul-25 08:31N 59°27' E 024°46'0 0.0
2015-Jul-25 07:33N 59°27' E 024°46'5 4.9
2015-Jul-25 06:33N 59°30' E 024°39'19714.0
2015-Jul-24 16:29N 59°20' E 018°12'4 1.5
2015-Jul-24 14:06N 59°19' E 018°05'0 0.0
2015-Jul-24 12:33N 59°19' E 018°05'0 0.0
2015-Jul-24 11:27N 59°19' E 018°05'0 0.0
2015-Jul-24 07:24N 59°19' E 018°05'0 0.0
2015-Jul-24 05:33N 59°19' E 018°05'9 9.3
2015-Jul-24 04:33N 59°22' E 018°22'232 8.3
2015-Jul-23 00:29N 55°45' E 015°49'1516.3
2015-Jul-22 23:33N 55°38' E 015°25'1616.4
2015-Jul-22 22:33N 55°30' E 014°60'1616.2
2015-Jul-22 21:33N 55°21' E 014°36'1615.6
2015-Jul-22 20:34N 55°11' E 014°16'1716.7
2015-Jul-22 19:33N 55°11' E 013°47'1716.7
2015-Jul-22 18:34N 55°13' E 013°18'1716.5
2015-Jul-22 17:34N 55°16' E 012°49'1313.1
2015-Jul-22 16:34N 55°28' E 012°41'1212.2
2015-Jul-22 15:33N 55°40' E 012°41'3 3.3
2015-Jul-22 14:31N 55°42' E 012°36'0 0.0
2015-Jul-22 13:31N 55°42' E 012°36'0 0.0
2015-Jul-22 12:34N 55°42' E 012°36'0 0.0
2015-Jul-22 11:33N 55°42' E 012°36'0 0.0
2015-Jul-22 10:33N 55°42' E 012°36'0 0.0
2015-Jul-22 09:33N 55°42' E 012°36'0 0.0
2015-Jul-22 08:33N 55°42' E 012°36'  

Dump ship's entire track history